»·PEaware :: WAT390 KLAS-KSEA

WAT390 :: KLAS-KSEA

FLIGHT INFORMATION

Flight Status: Arrived
Operator:
Walker Air Transport
More flights by this operator :: More flights under this callsign
Pilot: Ewen S. (18928)
Aircraft: BOEING 727-200
(B722)
More flights by this aircraft type
Origin: KLAS McCarran Intl
United States
Destination: KSEA Seattle-Tacoma Intl
United States
More flights between these airports :: More routes between these airports
Route: MCCRN5 BTY J92 LMT J189 BTG OLM2
File this flight plan on PilotEdge
Remarks:
Altitude:
(Current/Filed)
34,000ft
Speed:
(Current/Filed)
440kts
Departed: 05-Jan-21 01:28 PM
Arrived: 05-Jan-21 03:46 PM
Distance/Time
Traveled:
753nm/2:18
Distance/Time
To Go:
Arrived

Flight Plot

Page will automatically refresh every two minutes.

Flight plan parsing failed; only flown route is shown


Map Options




Map Legend


Flown Route
Filed Route
Departure Airport
Arrival Airport
Navaid (VOR, NDB)
Fix

Horizontal Profiles

Position Reports

Time Latitude Longitude Heading Altitude Ground
Speed
05-Jan-21 13:05 36.082401 -115.125589 89 2190ft 0kts
05-Jan-21 13:06 36.082401 -115.125589 89 2190ft 0kts
05-Jan-21 13:07 36.082401 -115.125589 89 2190ft 0kts
05-Jan-21 13:08 36.082401 -115.125589 89 2190ft 0kts
05-Jan-21 13:09 36.082401 -115.125589 89 2190ft 0kts
05-Jan-21 13:10 36.082401 -115.125589 89 2190ft 0kts
05-Jan-21 13:11 36.082401 -115.125589 89 2190ft 0kts
05-Jan-21 13:12 36.082401 -115.125589 89 2190ft 0kts
05-Jan-21 13:13 36.082401 -115.125589 89 2190ft 0kts
05-Jan-21 13:14 36.082401 -115.125589 89 2190ft 0kts
05-Jan-21 13:15 36.082401 -115.125589 89 2190ft 0kts
05-Jan-21 13:16 36.082401 -115.125589 89 2190ft 0kts
05-Jan-21 13:17 36.082448 -115.125797 99 2190ft 2kts
05-Jan-21 13:18 36.082756 -115.126353 171 2190ft 2kts
05-Jan-21 13:19 36.082870 -115.126359 180 2190ft 0kts
05-Jan-21 13:20 36.082870 -115.126359 180 2190ft 0kts
05-Jan-21 13:21 36.082870 -115.126359 180 2190ft 0kts
05-Jan-21 13:22 36.082824 -115.126360 180 2190ft 4kts
05-Jan-21 13:23 36.078991 -115.126344 179 2190ft 0kts
05-Jan-21 13:24 36.078025 -115.126332 179 2190ft 4kts
05-Jan-21 13:25 36.077587 -115.124030 89 2190ft 7kts
05-Jan-21 13:26 36.076487 -115.121427 239 2190ft 14kts
05-Jan-21 13:27 36.076371 -115.160956 270 2788ft 199kts
05-Jan-21 13:28 36.069119 -115.224551 223 6054ft 195kts
05-Jan-21 13:29 36.015060 -115.256570 201 8324ft 239kts
05-Jan-21 13:30 35.955874 -115.299417 245 11247ft 251kts
05-Jan-21 13:31 35.927854 -115.388153 251 13316ft 297kts
05-Jan-21 13:32 35.901302 -115.487374 268 15916ft 304kts
05-Jan-21 13:33 35.896659 -115.580628 271 18145ft 309kts
05-Jan-21 13:34 35.891724 -115.679494 280 19881ft 318kts
05-Jan-21 13:35 35.942163 -115.768800 312 21633ft 321kts
05-Jan-21 13:36 36.006213 -115.850853 317 23269ft 331kts
05-Jan-21 13:37 36.077352 -115.927914 321 24810ft 338kts
05-Jan-21 13:38 36.152061 -115.999625 322 26206ft 345kts
05-Jan-21 13:39 36.228410 -116.075548 319 27469ft 352kts
05-Jan-21 13:40 36.302070 -116.161049 315 28608ft 358kts
05-Jan-21 13:41 36.371700 -116.250229 315 29603ft 364kts
05-Jan-21 13:42 36.445268 -116.340467 317 30495ft 369kts
05-Jan-21 13:43 36.523013 -116.427416 319 31427ft 370kts
05-Jan-21 13:44 36.600891 -116.514447 318 32153ft 373kts
05-Jan-21 13:45 36.676709 -116.602854 318 33446ft 357kts
05-Jan-21 13:46 36.750142 -116.688663 317 34092ft 356kts
05-Jan-21 13:47 36.818532 -116.780728 312 34325ft 359kts
05-Jan-21 13:48 36.905567 -116.839638 339 34322ft 358kts
05-Jan-21 13:49 36.987390 -116.908933 326 34320ft 360kts
05-Jan-21 13:50 37.073671 -116.979894 327 34317ft 368kts
05-Jan-21 13:51 37.159535 -117.049719 327 34357ft 376kts
05-Jan-21 13:52 37.248276 -117.124202 326 34348ft 385kts
05-Jan-21 13:53 37.339109 -117.202701 325 34347ft 394kts
05-Jan-21 13:54 37.429801 -117.286045 322 34343ft 401kts
05-Jan-21 13:55 37.522127 -117.369692 327 34346ft 405kts
05-Jan-21 13:56 37.620475 -117.444446 329 34349ft 408kts
05-Jan-21 13:57 37.718471 -117.523200 326 34345ft 412kts
05-Jan-21 13:58 37.814241 -117.607801 325 34350ft 414kts
05-Jan-21 13:59 37.911277 -117.691870 325 34352ft 417kts
05-Jan-21 14:00 38.001952 -117.785325 318 34347ft 418kts
05-Jan-21 14:01 38.094719 -117.880239 322 34347ft 419kts
05-Jan-21 14:02 38.181798 -117.982175 314 34346ft 423kts
05-Jan-21 14:03 38.267157 -118.087407 318 34349ft 426kts
05-Jan-21 14:04 38.355364 -118.190603 318 34345ft 429kts
05-Jan-21 14:05 38.444247 -118.295566 317 34380ft 431kts
05-Jan-21 14:06 38.531979 -118.400902 317 34372ft 433kts
05-Jan-21 14:07 38.620834 -118.508898 316 34373ft 434kts
05-Jan-21 14:08 38.709929 -118.617833 316 34373ft 436kts
05-Jan-21 14:09 38.788003 -118.737845 298 34371ft 435kts
05-Jan-21 14:10 38.874693 -118.845609 320 34374ft 431kts
05-Jan-21 14:11 38.969031 -118.937873 321 34377ft 433kts
05-Jan-21 14:12 39.059827 -119.035227 316 34372ft 435kts
05-Jan-21 14:13 39.145218 -119.149175 311 34369ft 436kts
05-Jan-21 14:14 39.228440 -119.267311 313 34335ft 440kts
05-Jan-21 14:16 39.316583 -119.380821 315 34344ft 441kts
05-Jan-21 14:17 39.406253 -119.493241 314 34345ft 443kts
05-Jan-21 14:18 39.494608 -119.607698 314 34348ft 443kts
05-Jan-21 14:19 39.594479 -119.705903 326 34347ft 445kts
05-Jan-21 14:20 39.703968 -119.786052 327 34347ft 446kts
05-Jan-21 14:21 39.809891 -119.865886 327 34344ft 447kts
05-Jan-21 14:22 39.909002 -119.940930 327 34344ft 448kts
05-Jan-21 14:23 40.018676 -120.024369 327 34344ft 449kts
05-Jan-21 14:24 40.127419 -120.107150 327 34345ft 450kts
05-Jan-21 14:25 40.237181 -120.190097 327 34344ft 451kts
05-Jan-21 14:26 40.345514 -120.272872 327 34346ft 452kts
05-Jan-21 14:27 40.454580 -120.357056 327 34347ft 452kts
05-Jan-21 14:28 40.563357 -120.441713 327 34344ft 452kts
05-Jan-21 14:29 40.672587 -120.527005 327 34342ft 452kts
05-Jan-21 14:29 40.763458 -120.597998 327 34344ft 451kts
05-Jan-21 14:31 40.890415 -120.697538 325 34347ft 447kts
05-Jan-21 14:32 40.997118 -120.783917 323 34343ft 439kts
05-Jan-21 14:33 41.101163 -120.866987 327 34345ft 436kts
05-Jan-21 14:33 41.190567 -120.931358 327 34341ft 433kts
05-Jan-21 14:34 41.296685 -121.008918 327 34347ft 428kts
05-Jan-21 14:36 41.414369 -121.105110 323 34340ft 423kts
05-Jan-21 14:36 41.484537 -121.167333 324 34346ft 420kts
05-Jan-21 14:37 41.584882 -121.255948 324 34281ft 417kts
05-Jan-21 14:38 41.683180 -121.337738 325 34292ft 415kts
05-Jan-21 14:39 41.782145 -121.416752 325 34286ft 412kts
05-Jan-21 14:40 41.879539 -121.496731 324 34287ft 408kts
05-Jan-21 14:41 41.976652 -121.578871 324 34289ft 405kts
05-Jan-21 14:42 42.073096 -121.659926 323 34293ft 402kts
05-Jan-21 14:43 42.177705 -121.719358 338 34295ft 409kts
05-Jan-21 14:44 42.288069 -121.759291 342 34286ft 411kts
05-Jan-21 14:45 42.400349 -121.786277 343 34291ft 412kts
05-Jan-21 14:46 42.514018 -121.814583 343 34290ft 412kts
05-Jan-21 14:47 42.628497 -121.842582 343 34290ft 412kts
05-Jan-21 14:48 42.742773 -121.870042 343 34291ft 412kts
05-Jan-21 14:49 42.856856 -121.897531 343 34294ft 412kts
05-Jan-21 14:50 42.970925 -121.925063 343 34289ft 411kts
05-Jan-21 14:51 43.083737 -121.952462 343 34226ft 412kts
05-Jan-21 14:52 43.193117 -121.979137 343 34237ft 412kts
05-Jan-21 14:53 43.306621 -122.006827 343 34233ft 413kts
05-Jan-21 14:54 43.419888 -122.034600 343 34241ft 415kts
05-Jan-21 14:55 43.533944 -122.063274 343 34241ft 420kts
05-Jan-21 14:56 43.650174 -122.092849 343 34239ft 426kts
05-Jan-21 14:57 43.767889 -122.122817 343 34237ft 431kts
05-Jan-21 14:58 43.886818 -122.152632 343 34237ft 435kts
05-Jan-21 14:59 44.006771 -122.182468 343 34241ft 438kts
05-Jan-21 15:00 44.127579 -122.212469 343 34240ft 442kts
05-Jan-21 15:01 44.246829 -122.241933 343 34204ft 446kts
05-Jan-21 15:02 44.369973 -122.272745 343 34209ft 448kts
05-Jan-21 15:03 44.493796 -122.304590 344 34208ft 451kts
05-Jan-21 15:04 44.621280 -122.320895 349 34211ft 458kts
05-Jan-21 15:05 44.749011 -122.334813 347 34209ft 458kts
05-Jan-21 15:06 44.875803 -122.360747 342 34240ft 454kts
05-Jan-21 15:07 45.000167 -122.399933 340 34239ft 453kts
05-Jan-21 15:08 45.118832 -122.438500 342 34239ft 457kts
05-Jan-21 15:09 45.245895 -122.470008 345 34241ft 461kts
05-Jan-21 15:10 45.371551 -122.496062 344 34237ft 462kts
05-Jan-21 15:11 45.498018 -122.526952 343 34234ft 462kts
05-Jan-21 15:12 45.625910 -122.560017 343 34238ft 463kts
05-Jan-21 15:13 45.755358 -122.592564 343 34234ft 463kts
05-Jan-21 15:14 45.883634 -122.624785 343 34205ft 464kts
05-Jan-21 15:15 46.011697 -122.658042 341 34205ft 444kts
05-Jan-21 15:16 46.130055 -122.689151 341 33152ft 415kts
05-Jan-21 15:17 46.240756 -122.717790 341 31260ft 410kts
05-Jan-21 15:18 46.353920 -122.747162 341 29512ft 400kts
05-Jan-21 15:19 46.464145 -122.775475 341 27619ft 391kts
05-Jan-21 15:20 46.570935 -122.803106 340 25819ft 383kts
05-Jan-21 15:21 46.675933 -122.830437 340 24079ft 376kts
05-Jan-21 15:22 46.779133 -122.857633 340 22415ft 369kts
05-Jan-21 15:23 46.880938 -122.885073 340 20781ft 363kts
05-Jan-21 15:24 46.981188 -122.904799 6 19191ft 377kts
05-Jan-21 15:25 47.059599 -122.797866 58 17680ft 391kts
05-Jan-21 15:26 47.138159 -122.690008 36 15858ft 374kts
05-Jan-21 15:27 47.215727 -122.591674 38 13389ft 359kts
05-Jan-21 15:28 47.295754 -122.487014 38 13117ft 362kts
05-Jan-21 15:29 47.383281 -122.428255 359 13010ft 340kts
05-Jan-21 15:30 47.478887 -122.416811 358 11657ft 331kts
05-Jan-21 15:31 47.574452 -122.408518 358 10389ft 318kts
05-Jan-21 15:32 47.661697 -122.404769 358 9278ft 308kts
05-Jan-21 15:33 47.748641 -122.404166 358 8036ft 304kts
05-Jan-21 15:34 47.834632 -122.401598 17 6832ft 299kts
05-Jan-21 15:35 47.851238 -122.310705 146 6108ft 225kts
05-Jan-21 15:36 47.795269 -122.265636 180 6114ft 226kts
05-Jan-21 15:37 47.738810 -122.299549 202 5350ft 213kts
05-Jan-21 15:38 47.683303 -122.305808 181 4083ft 212kts
05-Jan-21 15:39 47.633594 -122.307267 176 3663ft 161kts
05-Jan-21 15:40 47.592502 -122.306708 178 3034ft 145kts
05-Jan-21 15:41 47.557445 -122.306845 177 2291ft 131kts
05-Jan-21 15:42 47.523484 -122.307123 178 1626ft 121kts
05-Jan-21 15:43 47.490596 -122.307427 176 1005ft 124kts
05-Jan-21 15:44 47.457744 -122.307832 176 440ft 112kts
05-Jan-21 15:45 47.450117 -122.306654 88 438ft 0kts
05-Jan-21 15:46 47.451844 -122.305033 1 438ft 15kts
05-Jan-21 15:47 47.456960 -122.305002 2 438ft 23kts
05-Jan-21 15:48 47.461430 -122.304884 20 438ft 15kts
05-Jan-21 15:49 47.462649 -122.302768 0 438ft 0kts
05-Jan-21 15:50 47.462649 -122.302768 0 438ft 0kts
05-Jan-21 15:51 47.462649 -122.302768 0 438ft 0kts
05-Jan-21 15:52 47.462649 -122.302768 0 438ft 0kts

Navigation Log

Ident Type
Flight plan parsing failed, navigation log unavailable